createdAt,value
2019-02-26T00:00:47.350Z,-0.10
2019-02-26T00:03:19.675Z,-0.10
2019-02-26T00:05:49.867Z,-0.30
2019-02-26T00:08:21.381Z,-0.50
2019-02-26T00:10:47.795Z,-0.40
2019-02-26T00:13:16.381Z,-0.20
2019-02-26T00:15:46.011Z,-0.20
2019-02-26T00:18:16.796Z,-0.20
2019-02-26T00:20:45.279Z,-0.30
2019-02-26T00:23:13.850Z,-0.50
2019-02-26T00:25:42.461Z,-0.60
2019-02-26T00:28:11.556Z,-0.50
2019-02-26T00:30:42.486Z,-0.40
2019-02-26T00:33:11.013Z,-0.30
2019-02-26T00:35:41.530Z,-0.30
2019-02-26T00:38:11.636Z,-0.40
2019-02-26T00:40:41.059Z,-0.50
2019-02-26T00:43:10.147Z,-0.50
2019-02-26T00:45:39.163Z,-0.60
2019-02-26T00:48:07.670Z,-0.60
2019-02-26T00:50:37.420Z,-0.60
2019-02-26T00:53:06.436Z,-0.40
2019-02-26T00:55:37.359Z,-0.20
2019-02-26T00:58:05.976Z,-0.40
2019-02-26T01:00:35.557Z,-0.40
2019-02-26T01:03:06.024Z,-0.60
2019-02-26T01:05:36.126Z,-0.60
2019-02-26T01:08:06.448Z,-0.60
2019-02-26T01:10:36.723Z,-0.80
2019-02-26T01:13:07.149Z,-0.90
2019-02-26T01:15:35.529Z,-1.20
2019-02-26T01:18:05.600Z,-1.30
2019-02-26T01:20:34.204Z,-1.10
2019-02-26T01:23:02.677Z,-1.00
2019-02-26T01:25:31.176Z,-0.80
2019-02-26T01:28:00.420Z,-0.90
2019-02-26T01:30:31.286Z,-0.90
2019-02-26T01:33:00.575Z,-1.10
2019-02-26T01:35:30.811Z,-0.90
2019-02-26T01:38:00.516Z,-0.90
2019-02-26T01:40:29.310Z,-0.90
2019-02-26T01:43:00.196Z,-1.10
2019-02-26T01:45:29.997Z,-1.10
2019-02-26T01:47:58.351Z,-1.10
2019-02-26T01:50:28.399Z,-1.00
2019-02-26T01:52:59.122Z,-0.90
2019-02-26T01:55:27.750Z,-0.80
2019-02-26T01:57:58.565Z,-1.00
2019-02-26T02:00:26.611Z,-0.80
2019-02-26T02:02:55.236Z,-1.40
2019-02-26T02:05:25.702Z,-1.30
2019-02-26T02:07:55.841Z,-1.10
2019-02-26T02:10:24.553Z,-1.20
2019-02-26T02:12:55.260Z,-1.60
2019-02-26T02:15:23.742Z,-1.50
2019-02-26T02:17:52.537Z,-1.30
2019-02-26T02:20:21.664Z,-1.30
2019-02-26T02:22:50.279Z,-1.30
2019-02-26T02:25:18.902Z,-1.20
2019-02-26T02:27:50.021Z,-1.20
2019-02-26T02:30:23.180Z,-1.20
2019-02-26T02:32:53.728Z,-1.30
2019-02-26T02:35:19.601Z,-1.30
2019-02-26T02:37:50.736Z,-1.10
2019-02-26T02:40:18.466Z,-1.30
2019-02-26T02:42:49.127Z,-1.20
2019-02-26T02:45:20.717Z,-1.10
2019-02-26T02:47:47.551Z,-1.10
2019-02-26T02:50:18.485Z,-1.20
2019-02-26T02:52:46.284Z,-1.40
2019-02-26T02:55:18.619Z,-1.50
2019-02-26T02:57:48.625Z,-1.70
2019-02-26T03:00:17.125Z,-1.80
2019-02-26T03:02:49.378Z,-1.60
2019-02-26T03:05:15.943Z,-1.80
2019-02-26T03:07:47.944Z,-1.70
2019-02-26T03:10:15.358Z,-1.60
2019-02-26T03:12:47.685Z,-1.50
2019-02-26T03:15:16.097Z,-1.60
2019-02-26T03:17:44.677Z,-1.70
2019-02-26T03:20:14.259Z,-1.60
2019-02-26T03:22:46.133Z,-1.50
2019-02-26T03:25:22.995Z,-1.60
2019-02-26T03:27:49.346Z,-1.50
2019-02-26T03:30:31.343Z,-1.50
2019-02-26T03:32:55.745Z,-1.50
2019-02-26T03:35:23.260Z,-1.80
2019-02-26T03:37:52.435Z,-2.00
2019-02-26T03:40:23.892Z,-1.80
2019-02-26T03:42:51.134Z,-1.90
2019-02-26T03:45:23.846Z,-1.90
2019-02-26T03:47:49.899Z,-1.80
2019-02-26T03:50:19.349Z,-1.70
2019-02-26T03:52:47.942Z,-1.70
2019-02-26T03:55:18.864Z,-1.70
2019-02-26T03:57:47.548Z,-1.80
2019-02-26T04:00:20.345Z,-1.90
2019-02-26T04:02:51.749Z,-2.10
2019-02-26T04:05:19.506Z,-2.20
2019-02-26T04:07:51.610Z,-2.00
2019-02-26T04:10:18.240Z,-1.90
2019-02-26T04:12:48.647Z,-1.90
2019-02-26T04:15:24.238Z,-1.90
2019-02-26T04:17:50.308Z,-1.90
2019-02-26T04:20:18.887Z,-1.90
2019-02-26T04:22:50.121Z,-2.00
2019-02-26T04:25:35.480Z,-2.00
2019-02-26T04:28:27.410Z,-2.10
2019-02-26T04:30:58.681Z,-2.00
2019-02-26T04:33:46.672Z,-2.00
2019-02-26T04:36:20.307Z,-2.00
2019-02-26T04:39:14.379Z,-2.00
2019-02-26T04:41:48.376Z,-2.20
2019-02-26T04:44:28.260Z,-2.40
2019-02-26T04:46:57.138Z,-2.40
2019-02-26T04:49:28.132Z,-2.20
2019-02-26T04:51:56.319Z,-2.20
2019-02-26T04:54:27.128Z,-2.10
2019-02-26T04:56:55.506Z,-2.00
2019-02-26T04:59:24.233Z,-2.00
2019-02-26T05:01:55.138Z,-2.20
2019-02-26T05:04:23.330Z,-2.30
2019-02-26T05:06:51.849Z,-2.20
2019-02-26T05:09:22.113Z,-2.20
2019-02-26T05:11:50.592Z,-2.20
2019-02-26T05:14:22.939Z,-2.20
2019-02-26T05:16:49.304Z,-2.20
2019-02-26T05:19:19.634Z,-2.40
2019-02-26T05:21:48.928Z,-2.50
2019-02-26T05:24:17.923Z,-2.40
2019-02-26T05:26:47.571Z,-2.40
2019-02-26T05:29:16.026Z,-2.50
2019-02-26T05:31:44.459Z,-2.70
2019-02-26T05:34:15.141Z,-2.70
2019-02-26T05:36:46.032Z,-2.60
2019-02-26T05:39:14.582Z,-2.60
2019-02-26T05:41:43.411Z,-2.50
2019-02-26T05:44:11.916Z,-2.60
2019-02-26T05:46:40.468Z,-2.50
2019-02-26T05:49:10.552Z,-2.40
2019-02-26T05:51:39.072Z,-2.40
2019-02-26T05:54:08.225Z,-2.60
2019-02-26T05:56:40.767Z,-2.60
2019-02-26T05:59:09.510Z,-2.70
2019-02-26T06:01:38.063Z,-2.60
2019-02-26T06:04:07.770Z,-2.60
2019-02-26T06:06:36.766Z,-2.60
2019-02-26T06:09:07.705Z,-2.80
2019-02-26T06:11:39.171Z,-3.20
2019-02-26T06:14:09.576Z,-3.50
2019-02-26T06:16:36.770Z,-3.20
2019-02-26T06:19:08.524Z,-2.90
2019-02-26T06:21:41.823Z,-2.80
2019-02-26T06:24:07.966Z,-2.90
2019-02-26T06:26:38.122Z,-2.70
2019-02-26T06:29:06.612Z,-2.60
2019-02-26T06:31:37.141Z,-2.50
2019-02-26T06:34:06.446Z,-2.60
2019-02-26T06:36:35.490Z,-2.70
2019-02-26T06:39:06.007Z,-2.60
2019-02-26T06:41:34.605Z,-2.50
2019-02-26T06:44:03.218Z,-2.30
2019-02-26T06:46:33.664Z,-2.50
2019-02-26T06:49:01.834Z,-2.40
2019-02-26T06:51:30.838Z,-2.30
2019-02-26T06:54:01.080Z,-2.30
2019-02-26T06:56:30.182Z,-2.40
2019-02-26T06:59:02.988Z,-2.30
2019-02-26T07:01:32.759Z,-2.20
2019-02-26T07:04:02.138Z,-2.10
2019-02-26T07:06:32.625Z,-2.10
2019-02-26T07:09:00.756Z,-2.00
2019-02-26T07:11:31.456Z,-1.90
2019-02-26T07:14:01.305Z,-1.70
2019-02-26T07:16:29.571Z,-1.50
2019-02-26T07:18:58.990Z,-1.20
2019-02-26T07:21:28.446Z,-0.90
2019-02-26T07:23:58.636Z,-0.40
2019-02-26T07:26:27.042Z,-0.20
2019-02-26T07:28:55.471Z,0.20
2019-02-26T07:31:24.698Z,0.10
2019-02-26T07:33:55.883Z,0.00
2019-02-26T07:36:25.880Z,0.10
2019-02-26T07:38:56.468Z,0.30
2019-02-26T07:41:26.095Z,0.70
2019-02-26T07:43:54.876Z,1.10
2019-02-26T07:46:23.349Z,1.30
2019-02-26T07:48:53.996Z,1.30
2019-02-26T07:51:21.987Z,1.40
2019-02-26T07:53:51.643Z,0.90
2019-02-26T07:56:21.186Z,1.20
2019-02-26T07:58:50.726Z,1.70
2019-02-26T08:01:19.176Z,2.00
2019-02-26T08:03:48.790Z,2.30
2019-02-26T08:06:17.785Z,2.80
2019-02-26T08:08:48.455Z,3.20
2019-02-26T08:11:16.391Z,2.50
2019-02-26T08:13:44.826Z,2.50
2019-02-26T08:16:13.281Z,2.80
2019-02-26T08:18:41.728Z,3.30
2019-02-26T08:21:10.158Z,4.00
2019-02-26T08:23:38.597Z,4.10
2019-02-26T08:26:07.028Z,4.50
2019-02-26T08:28:38.411Z,4.90
2019-02-26T08:31:05.867Z,5.30
2019-02-26T08:33:34.380Z,5.30
2019-02-26T08:36:02.835Z,5.40
2019-02-26T08:38:31.323Z,5.70
2019-02-26T08:40:59.759Z,6.10
2019-02-26T08:43:28.200Z,6.40
2019-02-26T08:45:56.637Z,6.60
2019-02-26T08:48:26.961Z,6.70
2019-02-26T08:50:55.939Z,6.90
2019-02-26T08:53:26.499Z,7.00
2019-02-26T08:55:56.308Z,7.40
2019-02-26T08:58:25.844Z,7.60
2019-02-26T09:00:55.030Z,7.90
2019-02-26T09:03:23.475Z,8.10
2019-02-26T09:05:53.843Z,8.20
2019-02-26T09:08:22.066Z,8.20
2019-02-26T09:10:50.491Z,8.30
2019-02-26T09:13:18.948Z,8.40
2019-02-26T09:15:47.427Z,8.50
2019-02-26T09:18:15.917Z,9.00
2019-02-26T09:20:44.386Z,9.20
2019-02-26T09:23:16.407Z,9.40
2019-02-26T09:25:42.993Z,9.40
2019-02-26T09:28:11.439Z,9.60
2019-02-26T09:30:40.859Z,9.70
2019-02-26T09:33:11.148Z,10.00
2019-02-26T09:35:39.717Z,10.10
2019-02-26T09:38:09.675Z,10.20
2019-02-26T09:40:38.120Z,10.40
2019-02-26T09:43:06.544Z,10.40
2019-02-26T09:45:34.986Z,10.50
2019-02-26T09:48:03.434Z,10.60
2019-02-26T09:50:31.894Z,11.30
2019-02-26T09:53:00.329Z,11.80
2019-02-26T09:55:28.760Z,11.90
2019-02-26T09:57:57.182Z,12.20
2019-02-26T10:00:29.009Z,12.50
2019-02-26T10:02:55.807Z,12.40
2019-02-26T10:05:24.250Z,12.20
2019-02-26T10:07:54.889Z,12.70
2019-02-26T10:10:28.256Z,12.90
2019-02-26T10:12:57.427Z,13.20
2019-02-26T10:15:26.076Z,13.40
2019-02-26T10:17:56.195Z,13.60
2019-02-26T10:20:29.578Z,13.40
2019-02-26T10:22:58.599Z,13.80
2019-02-26T10:25:31.088Z,14.10
2019-02-26T10:27:57.143Z,14.20
2019-02-26T10:30:27.696Z,14.30
2019-02-26T10:32:55.721Z,14.50
2019-02-26T10:35:32.470Z,14.80
2019-02-26T10:38:00.437Z,14.80
2019-02-26T10:40:35.204Z,15.00
2019-02-26T10:42:58.807Z,14.90
2019-02-26T10:45:35.929Z,15.40
2019-02-26T10:48:01.775Z,15.00
2019-02-26T10:50:31.979Z,15.60
2019-02-26T10:53:07.106Z,15.80
2019-02-26T10:55:37.997Z,16.00
2019-02-26T10:58:04.743Z,16.10
2019-02-26T11:00:34.782Z,15.90
2019-02-26T11:03:01.861Z,16.10
2019-02-26T11:05:30.396Z,16.40
2019-02-26T11:08:02.192Z,16.60
2019-02-26T11:10:29.019Z,16.30
2019-02-26T11:12:59.620Z,16.20
2019-02-26T11:15:30.262Z,16.70
2019-02-26T11:17:57.782Z,17.00
2019-02-26T11:20:28.338Z,17.10
2019-02-26T11:22:56.396Z,17.10
2019-02-26T11:25:27.204Z,17.20
2019-02-26T11:27:54.995Z,17.30
2019-02-26T11:30:27.218Z,17.80
2019-02-26T11:32:58.767Z,17.80
2019-02-26T11:35:27.106Z,18.00
2019-02-26T11:37:57.411Z,18.00
2019-02-26T11:40:29.601Z,18.10
2019-02-26T11:42:56.295Z,18.10
2019-02-26T11:45:25.555Z,18.10
2019-02-26T11:47:55.808Z,18.00
2019-02-26T11:50:27.984Z,18.30
2019-02-26T11:52:55.896Z,18.50
2019-02-26T11:55:26.378Z,18.30
2019-02-26T11:57:54.482Z,18.50
2019-02-26T12:00:50.405Z,18.30
2019-02-26T12:03:18.195Z,18.10
2019-02-26T12:05:46.667Z,18.40
2019-02-26T12:08:17.396Z,18.90
2019-02-26T12:10:45.283Z,18.70
2019-02-26T12:13:14.669Z,18.90
2019-02-26T12:15:44.068Z,19.00
2019-02-26T12:18:14.621Z,19.20
2019-02-26T12:20:43.459Z,19.20
2019-02-26T12:23:15.621Z,19.10
2019-02-26T12:25:43.036Z,19.40
2019-02-26T12:28:14.425Z,19.30
2019-02-26T12:30:44.780Z,19.70
2019-02-26T12:33:14.765Z,19.80
2019-02-26T12:35:43.801Z,19.80
2019-02-26T12:38:18.236Z,19.60
2019-02-26T12:40:44.675Z,19.70
2019-02-26T12:43:15.498Z,19.80
2019-02-26T12:45:42.781Z,20.20
2019-02-26T12:48:15.606Z,19.30
2019-02-26T12:50:41.432Z,20.00
2019-02-26T12:53:12.536Z,20.30
2019-02-26T12:55:42.310Z,20.00
2019-02-26T13:00:42.049Z,19.50
2019-02-26T13:03:12.701Z,20.20
2019-02-26T13:05:42.544Z,20.10
2019-02-26T13:08:14.807Z,20.00
2019-02-26T13:10:42.548Z,20.30
2019-02-26T13:13:11.155Z,20.30
2019-02-26T13:15:39.626Z,20.40
2019-02-26T13:18:09.600Z,20.60
2019-02-26T13:20:38.032Z,20.60
2019-02-26T13:23:17.033Z,20.50
2019-02-26T13:25:36.636Z,20.50
2019-02-26T13:28:05.114Z,20.70
2019-02-26T13:30:33.599Z,20.70
2019-02-26T13:33:05.350Z,21.00
2019-02-26T13:35:32.185Z,20.90
2019-02-26T13:38:02.669Z,20.80
2019-02-26T13:45:29.960Z,20.60
2019-02-26T13:48:01.357Z,20.00
2019-02-26T13:50:29.428Z,20.30
2019-02-26T13:52:57.862Z,19.70
2019-02-26T13:55:26.307Z,19.50
2019-02-26T13:57:54.735Z,19.60
2019-02-26T14:00:26.396Z,19.50
2019-02-26T14:02:53.637Z,19.30
2019-02-26T14:05:22.137Z,19.40
2019-02-26T14:07:50.717Z,19.40
2019-02-26T14:10:21.244Z,19.40
2019-02-26T14:12:49.675Z,19.30
2019-02-26T14:15:25.495Z,19.70
2019-02-26T14:17:54.550Z,19.90
2019-02-26T14:20:23.170Z,20.20
2019-02-26T14:22:51.783Z,20.10
2019-02-26T14:25:20.294Z,20.10
2019-02-26T14:27:48.716Z,20.10
2019-02-26T14:30:21.256Z,20.10
2019-02-26T14:32:49.795Z,20.20
2019-02-26T14:35:18.234Z,19.90
2019-02-26T14:37:46.659Z,19.50
2019-02-26T14:40:17.202Z,19.70
2019-02-26T14:42:45.720Z,20.10
2019-02-26T14:45:19.462Z,20.10
2019-02-26T14:47:47.912Z,20.20
2019-02-26T14:50:20.246Z,20.10
2019-02-26T14:52:48.695Z,20.30
2019-02-26T14:55:17.291Z,20.10
2019-02-26T14:57:45.790Z,20.30
2019-02-26T15:00:31.362Z,19.70
2019-02-26T15:02:59.813Z,19.70
2019-02-26T15:05:28.232Z,19.80
2019-02-26T15:07:56.692Z,19.90
2019-02-26T15:10:25.194Z,20.10
2019-02-26T15:12:53.912Z,20.20
2019-02-26T15:15:22.355Z,20.20
2019-02-26T15:17:50.846Z,20.30
2019-02-26T15:20:21.380Z,20.20
2019-02-26T15:22:49.999Z,20.20
2019-02-26T15:25:31.811Z,20.20
2019-02-26T15:28:04.954Z,20.30
2019-02-26T15:30:30.575Z,20.30
2019-02-26T15:32:58.993Z,20.20
2019-02-26T15:35:27.599Z,20.00
2019-02-26T15:37:56.030Z,20.00
2019-02-26T15:40:24.536Z,20.10
2019-02-26T15:42:56.219Z,20.00
2019-02-26T15:45:28.961Z,20.00
2019-02-26T15:47:57.714Z,19.90
2019-02-26T15:50:26.238Z,19.80
2019-02-26T15:52:54.664Z,19.80
2019-02-26T15:55:25.869Z,19.80
2019-02-26T15:57:55.053Z,19.70
2019-02-26T16:00:26.572Z,19.50
2019-02-26T16:02:59.030Z,19.60
2019-02-26T16:05:28.834Z,19.60
2019-02-26T16:07:57.290Z,19.20
2019-02-26T16:10:25.728Z,19.20
2019-02-26T16:12:54.504Z,19.30
2019-02-26T16:15:22.979Z,19.20
2019-02-26T16:17:52.465Z,19.00
2019-02-26T16:20:21.543Z,18.80
2019-02-26T16:22:50.531Z,18.70
2019-02-26T16:25:19.610Z,18.50
2019-02-26T16:27:48.462Z,18.40
2019-02-26T16:30:19.526Z,18.20
2019-02-26T16:32:48.908Z,16.40
2019-02-26T16:35:17.905Z,15.40
2019-02-26T16:37:46.353Z,15.90
2019-02-26T16:40:16.029Z,16.20
2019-02-26T16:42:45.142Z,16.40
2019-02-26T16:45:15.896Z,16.50
2019-02-26T16:47:46.014Z,16.50
2019-02-26T16:50:18.455Z,16.30
2019-02-26T16:52:46.914Z,15.90
2019-02-26T16:55:17.339Z,16.00
2019-02-26T16:57:46.205Z,16.00
2019-02-26T17:00:23.057Z,15.80
2019-02-26T17:02:51.506Z,15.70
2019-02-26T17:05:19.926Z,15.50
2019-02-26T17:07:48.745Z,15.20
2019-02-26T17:10:18.723Z,14.90
2019-02-26T17:12:51.453Z,14.50
2019-02-26T17:15:24.625Z,14.20
2019-02-26T17:17:52.401Z,14.10
2019-02-26T17:20:22.636Z,13.60
2019-02-26T17:22:51.792Z,12.90
2019-02-26T17:25:21.257Z,12.30
2019-02-26T17:27:49.708Z,12.60
2019-02-26T17:30:20.845Z,12.90
2019-02-26T17:32:48.908Z,12.90
2019-02-26T17:35:17.471Z,12.90
2019-02-26T17:37:46.151Z,12.00
2019-02-26T17:40:23.087Z,10.70
2019-02-26T17:42:51.987Z,11.00
2019-02-26T17:45:25.750Z,11.10
2019-02-26T17:47:56.538Z,11.10
2019-02-26T17:50:35.959Z,10.30
2019-02-26T17:53:04.564Z,9.90
2019-02-26T17:55:32.989Z,10.30
2019-02-26T17:58:01.434Z,10.50
2019-02-26T18:00:31.637Z,10.60
2019-02-26T18:03:00.087Z,10.70
2019-02-26T18:05:28.637Z,10.80
2019-02-26T18:07:57.098Z,10.70
2019-02-26T18:10:26.668Z,10.40
2019-02-26T18:12:55.502Z,10.10
2019-02-26T18:15:24.016Z,10.20
2019-02-26T18:17:52.463Z,9.90
2019-02-26T18:20:22.890Z,9.60
2019-02-26T18:22:51.485Z,9.40
2019-02-26T18:25:24.686Z,8.90
2019-02-26T18:27:53.122Z,8.60
2019-02-26T18:30:27.519Z,7.50
2019-02-26T18:32:58.842Z,7.60
2019-02-26T18:35:26.170Z,8.20
2019-02-26T18:37:54.622Z,7.20
2019-02-26T18:40:23.042Z,7.30
2019-02-26T18:42:52.437Z,7.80
2019-02-26T18:45:29.149Z,8.20
2019-02-26T18:47:57.808Z,8.10
2019-02-26T18:50:29.337Z,8.10
2019-02-26T18:52:58.363Z,8.00
2019-02-26T18:55:28.473Z,8.00
2019-02-26T18:57:57.534Z,8.10
2019-02-26T19:00:31.094Z,7.60
2019-02-26T19:02:59.641Z,7.70
2019-02-26T19:05:28.144Z,7.50
2019-02-26T19:07:56.574Z,7.80
2019-02-26T19:10:25.010Z,7.60
2019-02-26T19:12:53.527Z,7.50
2019-02-26T19:15:24.311Z,7.30
2019-02-26T19:17:54.290Z,7.40
2019-02-26T19:20:25.627Z,7.20
2019-02-26T19:22:54.129Z,6.90
2019-02-26T19:25:22.577Z,6.50
2019-02-26T19:27:53.068Z,6.50
2019-02-26T19:30:22.633Z,6.50
2019-02-26T19:32:51.131Z,6.60
2019-02-26T19:35:19.773Z,6.70
2019-02-26T19:37:52.717Z,6.70
2019-02-26T19:40:24.008Z,6.50
2019-02-26T19:42:52.819Z,6.40
2019-02-26T19:45:21.909Z,6.30
2019-02-26T19:47:50.429Z,6.00
2019-02-26T19:50:18.880Z,5.90
2019-02-26T19:52:56.439Z,5.70
2019-02-26T19:55:23.560Z,5.00
2019-02-26T19:57:52.081Z,4.50
2019-02-26T20:00:20.595Z,4.80
2019-02-26T20:02:49.010Z,4.90
2019-02-26T20:05:17.449Z,4.60
2019-02-26T20:07:45.872Z,4.40
2019-02-26T20:10:18.735Z,3.70
2019-02-26T20:12:47.151Z,3.10
2019-02-26T20:15:15.662Z,3.00
2019-02-26T20:17:44.092Z,3.50
2019-02-26T20:20:17.197Z,3.80
2019-02-26T20:22:45.657Z,3.80
2019-02-26T20:25:17.098Z,3.90
2019-02-26T20:27:45.891Z,4.20
2019-02-26T20:30:19.040Z,4.20
2019-02-26T20:32:47.616Z,4.40
2019-02-26T20:35:16.119Z,4.30
2019-02-26T20:37:44.585Z,4.30
2019-02-26T20:40:18.037Z,4.10
2019-02-26T20:42:46.462Z,4.10
2019-02-26T20:45:18.061Z,3.80
2019-02-26T20:47:47.017Z,3.60
2019-02-26T20:50:20.012Z,3.80
2019-02-26T20:52:45.806Z,3.70
2019-02-26T20:55:20.257Z,3.60
2019-02-26T20:57:48.863Z,3.40
2019-02-26T21:00:19.345Z,3.40
2019-02-26T21:02:48.097Z,3.40
2019-02-26T21:05:16.705Z,3.50
2019-02-26T21:07:45.199Z,3.50
2019-02-26T21:10:20.530Z,3.20
2019-02-26T21:12:49.226Z,3.40
2019-02-26T21:15:25.514Z,3.30
2019-02-26T21:17:57.714Z,2.10
2019-02-26T21:20:24.106Z,1.50
2019-02-26T21:22:54.536Z,1.40
2019-02-26T21:25:22.699Z,1.20
2019-02-26T21:27:51.162Z,1.60
2019-02-26T21:30:26.726Z,2.00
2019-02-26T21:32:57.815Z,1.80
2019-02-26T21:35:25.379Z,1.90
2019-02-26T21:37:53.813Z,2.10
2019-02-26T21:40:22.240Z,2.30
2019-02-26T21:42:50.692Z,2.30
2019-02-26T21:45:20.435Z,2.10
2019-02-26T21:47:49.008Z,2.20
2019-02-26T21:50:22.079Z,2.00
2019-02-26T21:52:59.144Z,2.00
2019-02-26T21:55:17.744Z,2.00
2019-02-26T21:57:46.170Z,2.10
2019-02-26T22:00:22.466Z,2.30
2019-02-26T22:02:52.386Z,2.40
2019-02-26T22:05:21.156Z,2.40
2019-02-26T22:07:52.081Z,2.30
2019-02-26T22:10:21.228Z,2.10
2019-02-26T22:12:49.700Z,2.10
2019-02-26T22:15:18.242Z,1.60
2019-02-26T22:17:46.779Z,1.50
2019-02-26T22:20:35.530Z,0.80
2019-02-26T22:22:50.055Z,1.10
2019-02-26T22:25:18.580Z,1.20
2019-02-26T22:27:47.095Z,1.30
2019-02-26T22:30:21.990Z,1.40
2019-02-26T22:32:50.100Z,1.40
2019-02-26T22:35:18.711Z,1.10
2019-02-26T22:37:47.161Z,1.50
2019-02-26T22:40:15.985Z,1.70
2019-02-26T22:42:44.430Z,1.50
2019-02-26T22:45:14.488Z,1.20
2019-02-26T22:47:44.365Z,1.20
2019-02-26T22:50:17.516Z,1.20
2019-02-26T22:52:46.043Z,1.40
2019-02-26T22:55:16.471Z,1.40
2019-02-26T22:57:45.966Z,1.40
2019-02-26T23:00:50.822Z,1.40
2019-02-26T23:03:19.259Z,1.20
2019-02-26T23:05:47.759Z,0.90
2019-02-26T23:08:16.528Z,0.90
2019-02-26T23:10:45.022Z,0.90
2019-02-26T23:13:13.878Z,1.10
2019-02-26T23:15:44.912Z,1.10
2019-02-26T23:18:13.178Z,0.70
2019-02-26T23:20:42.747Z,0.60
2019-02-26T23:23:12.028Z,0.70
2019-02-26T23:25:40.559Z,0.70
2019-02-26T23:28:08.989Z,0.80
2019-02-26T23:30:37.674Z,0.80
2019-02-26T23:33:07.394Z,0.80
2019-02-26T23:35:36.130Z,0.70
2019-02-26T23:38:07.980Z,0.80
2019-02-26T23:40:34.778Z,0.80
2019-02-26T23:43:03.366Z,0.50
2019-02-26T23:45:31.798Z,0.60
2019-02-26T23:48:00.225Z,0.70
2019-02-26T23:50:28.695Z,0.70
2019-02-26T23:53:00.858Z,0.70
2019-02-26T23:55:27.897Z,0.70
2019-02-26T23:57:57.919Z,0.50
